createdAt,value
2018-06-17T00:00:34.929Z,15.76
2018-06-17T00:01:35.174Z,15.72
2018-06-17T00:02:35.421Z,15.59
2018-06-17T00:03:35.668Z,15.54
2018-06-17T00:04:35.912Z,15.50
2018-06-17T00:05:36.159Z,15.51
2018-06-17T00:06:36.407Z,15.43
2018-06-17T00:07:36.652Z,15.28
2018-06-17T00:08:36.899Z,15.13
2018-06-17T00:09:37.145Z,15.16
2018-06-17T00:10:37.391Z,15.16
2018-06-17T00:11:37.638Z,15.10
2018-06-17T00:12:37.885Z,15.02
2018-06-17T00:13:38.135Z,15.13
2018-06-17T00:14:38.383Z,15.14
2018-06-17T00:15:38.632Z,15.20
2018-06-17T00:16:38.874Z,15.27
2018-06-17T00:17:39.121Z,15.38
2018-06-17T00:18:39.370Z,15.75
2018-06-17T00:19:39.617Z,15.86
2018-06-17T00:20:39.864Z,15.86
2018-06-17T00:21:40.111Z,15.93
2018-06-17T00:22:40.356Z,16.05
2018-06-17T00:23:40.602Z,16.08
2018-06-17T00:24:40.852Z,16.11
2018-06-17T00:25:41.097Z,16.17
2018-06-17T00:26:41.345Z,16.23
2018-06-17T00:27:41.591Z,16.12
2018-06-17T00:28:41.838Z,16.24
2018-06-17T00:29:42.084Z,16.14
2018-06-17T00:30:42.330Z,16.21
2018-06-17T00:31:42.581Z,16.24
2018-06-17T00:32:42.824Z,16.30
2018-06-17T00:33:43.070Z,16.35
2018-06-17T00:34:43.317Z,16.28
2018-06-17T00:35:43.563Z,16.09
2018-06-17T00:36:43.809Z,15.86
2018-06-17T00:37:44.056Z,15.57
2018-06-17T00:38:44.301Z,15.32
2018-06-17T00:39:44.548Z,15.17
2018-06-17T00:40:44.795Z,15.02
2018-06-17T00:41:45.040Z,14.86
2018-06-17T00:42:45.287Z,14.65
2018-06-17T00:43:45.534Z,14.45
2018-06-17T00:44:45.779Z,14.57
2018-06-17T00:45:46.024Z,14.42
2018-06-17T00:46:46.272Z,14.36
2018-06-17T00:47:46.517Z,14.39
2018-06-17T00:48:46.764Z,14.37
2018-06-17T00:49:47.011Z,14.57
2018-06-17T00:50:47.255Z,14.70
2018-06-17T00:51:47.500Z,14.73
2018-06-17T00:52:47.747Z,15.03
2018-06-17T00:53:47.994Z,15.16
2018-06-17T00:54:48.237Z,15.34
2018-06-17T00:55:48.483Z,15.29
2018-06-17T00:56:48.729Z,15.43
2018-06-17T00:57:48.975Z,15.50
2018-06-17T00:58:49.220Z,15.51
2018-06-17T00:59:49.467Z,15.46
2018-06-17T01:00:49.714Z,15.44
2018-06-17T01:01:49.960Z,15.34
2018-06-17T01:02:50.206Z,15.29
2018-06-17T01:03:50.451Z,15.21
2018-06-17T01:04:50.697Z,15.20
2018-06-17T01:05:50.943Z,15.10
2018-06-17T01:06:51.188Z,15.21
2018-06-17T01:07:51.435Z,15.21
2018-06-17T01:08:51.680Z,15.20
2018-06-17T01:09:51.924Z,15.19
2018-06-17T01:10:52.171Z,15.02
2018-06-17T01:11:52.418Z,15.11
2018-06-17T01:12:52.664Z,15.02
2018-06-17T01:13:52.908Z,15.03
2018-06-17T01:14:53.152Z,15.07
2018-06-17T01:15:53.400Z,15.09
2018-06-17T01:16:53.645Z,15.21
2018-06-17T01:17:53.891Z,15.19
2018-06-17T01:18:54.139Z,15.41
2018-06-17T01:19:54.384Z,15.59
2018-06-17T01:20:54.629Z,15.56
2018-06-17T01:21:54.877Z,15.57
2018-06-17T01:22:55.120Z,15.56
2018-06-17T01:23:55.367Z,15.59
2018-06-17T01:24:55.612Z,15.51
2018-06-17T01:25:55.857Z,15.51
2018-06-17T01:26:56.103Z,15.56
2018-06-17T01:27:56.347Z,15.53
2018-06-17T01:28:56.592Z,15.57
2018-06-17T01:29:56.840Z,15.69
2018-06-17T01:30:57.091Z,15.64
2018-06-17T01:31:57.335Z,15.64
2018-06-17T01:32:57.584Z,15.51
2018-06-17T01:33:57.828Z,15.54
2018-06-17T01:34:58.074Z,15.38
2018-06-17T01:35:58.321Z,15.27
2018-06-17T01:36:58.562Z,15.11
2018-06-17T01:37:58.808Z,15.17
2018-06-17T01:38:59.054Z,15.09
2018-06-17T01:39:59.300Z,15.07
2018-06-17T01:40:59.545Z,15.02
2018-06-17T01:41:59.790Z,14.88
2018-06-17T01:43:00.036Z,14.84
2018-06-17T01:44:00.281Z,14.83
2018-06-17T01:45:00.525Z,14.73
2018-06-17T01:46:00.766Z,14.77
2018-06-17T01:47:01.015Z,14.65
2018-06-17T01:48:01.255Z,14.61
2018-06-17T01:49:01.498Z,14.60
2018-06-17T01:50:01.746Z,14.58
2018-06-17T01:51:01.988Z,14.65
2018-06-17T01:52:02.229Z,14.91
2018-06-17T01:53:02.472Z,14.99
2018-06-17T01:54:02.713Z,15.27
2018-06-17T01:55:02.959Z,15.29
2018-06-17T01:56:03.200Z,15.27
2018-06-17T01:57:03.441Z,15.43
2018-06-17T01:58:03.682Z,15.28
2018-06-17T01:59:03.924Z,14.98
2018-06-17T02:00:04.169Z,14.65
2018-06-17T02:01:04.416Z,14.39
2018-06-17T02:02:04.660Z,14.28
2018-06-17T02:03:04.905Z,14.18
2018-06-17T02:04:05.152Z,14.27
2018-06-17T02:05:05.399Z,14.36
2018-06-17T02:06:05.643Z,14.39
2018-06-17T02:07:05.891Z,14.50
2018-06-17T02:08:06.134Z,14.45
2018-06-17T02:09:06.381Z,14.51
2018-06-17T02:10:06.623Z,14.54
2018-06-17T02:11:06.870Z,14.55
2018-06-17T02:12:07.116Z,14.57
2018-06-17T02:13:07.360Z,14.68
2018-06-17T02:14:07.605Z,14.61
2018-06-17T02:15:07.851Z,14.72
2018-06-17T02:16:08.096Z,14.70
2018-06-17T02:17:08.341Z,14.70
2018-06-17T02:18:08.586Z,14.72
2018-06-17T02:19:08.830Z,14.68
2018-06-17T02:20:09.077Z,14.78
2018-06-17T02:21:09.322Z,14.78
2018-06-17T02:22:09.568Z,14.80
2018-06-17T02:23:09.813Z,14.86
2018-06-17T02:24:10.058Z,14.75
2018-06-17T02:25:10.301Z,14.80
2018-06-17T02:26:10.545Z,14.80
2018-06-17T02:27:10.791Z,14.83
2018-06-17T02:28:11.034Z,14.77
2018-06-17T02:29:11.277Z,14.73
2018-06-17T02:30:11.522Z,14.80
2018-06-17T02:31:11.769Z,14.73
2018-06-17T02:32:12.005Z,14.80
2018-06-17T02:33:12.247Z,14.75
2018-06-17T02:34:12.491Z,14.77
2018-06-17T02:35:12.735Z,14.73
2018-06-17T02:36:12.978Z,14.75
2018-06-17T02:37:13.219Z,14.80
2018-06-17T02:38:13.467Z,14.75
2018-06-17T02:39:13.711Z,14.75
2018-06-17T02:40:13.957Z,14.77
2018-06-17T02:41:14.205Z,14.81
2018-06-17T02:42:14.448Z,14.88
2018-06-17T02:43:14.694Z,14.94
2018-06-17T02:44:14.942Z,15.02
2018-06-17T02:45:15.185Z,15.11
2018-06-17T02:46:15.432Z,15.21
2018-06-17T02:47:15.677Z,15.19
2018-06-17T02:48:15.923Z,15.20
2018-06-17T02:49:16.167Z,15.25
2018-06-17T02:50:16.410Z,15.23
2018-06-17T02:51:16.651Z,15.27
2018-06-17T02:52:16.896Z,15.25
2018-06-17T02:53:17.138Z,15.16
2018-06-17T02:54:17.382Z,15.16
2018-06-17T02:55:17.624Z,14.96
2018-06-17T02:56:17.865Z,14.80
2018-06-17T02:57:18.107Z,14.78
2018-06-17T02:58:18.351Z,14.68
2018-06-17T02:59:18.592Z,14.72
2018-06-17T03:00:18.833Z,14.73
2018-06-17T03:01:19.077Z,14.68
2018-06-17T03:02:19.321Z,14.64
2018-06-17T03:03:19.566Z,14.68
2018-06-17T03:04:19.810Z,14.72
2018-06-17T03:05:20.053Z,14.68
2018-06-17T03:06:20.303Z,14.69
2018-06-17T03:07:20.549Z,14.72
2018-06-17T03:08:20.795Z,14.61
2018-06-17T03:09:21.042Z,14.62
2018-06-17T03:10:21.287Z,14.55
2018-06-17T03:11:21.534Z,14.57
2018-06-17T03:12:21.777Z,14.46
2018-06-17T03:13:22.023Z,14.51
2018-06-17T03:14:22.269Z,14.37
2018-06-17T03:15:22.512Z,14.33
2018-06-17T03:16:22.757Z,14.32
2018-06-17T03:17:22.999Z,14.33
2018-06-17T03:18:23.249Z,14.36
2018-06-17T03:19:23.486Z,14.43
2018-06-17T03:20:23.728Z,14.39
2018-06-17T03:21:23.972Z,14.42
2018-06-17T03:22:24.216Z,14.37
2018-06-17T03:23:24.457Z,14.50
2018-06-17T03:24:24.707Z,14.62
2018-06-17T03:25:24.947Z,14.64
2018-06-17T03:26:25.190Z,14.75
2018-06-17T03:27:25.431Z,14.73
2018-06-17T03:28:25.674Z,14.80
2018-06-17T03:29:25.915Z,14.81
2018-06-17T03:30:26.160Z,14.89
2018-06-17T03:31:26.409Z,14.77
2018-06-17T03:32:26.649Z,14.84
2018-06-17T03:33:26.892Z,14.64
2018-06-17T03:34:27.139Z,14.57
2018-06-17T03:35:27.385Z,14.57
2018-06-17T03:36:27.646Z,14.68
2018-06-17T03:37:27.875Z,14.65
2018-06-17T03:38:28.120Z,14.64
2018-06-17T03:39:28.365Z,14.61
2018-06-17T03:40:28.610Z,14.61
2018-06-17T03:41:28.854Z,14.69
2018-06-17T03:42:29.098Z,14.68
2018-06-17T03:43:29.341Z,14.69
2018-06-17T03:44:29.584Z,14.64
2018-06-17T03:45:29.829Z,14.70
2018-06-17T03:46:30.070Z,14.75
2018-06-17T03:47:30.313Z,14.77
2018-06-17T03:48:30.554Z,14.77
2018-06-17T03:49:30.796Z,14.80
2018-06-17T03:50:31.039Z,14.80
2018-06-17T03:51:31.280Z,14.88
2018-06-17T03:52:31.521Z,14.88
2018-06-17T03:53:31.763Z,14.98
2018-06-17T03:54:32.007Z,15.09
2018-06-17T03:55:32.252Z,14.99
2018-06-17T03:56:32.498Z,15.13
2018-06-17T03:57:32.743Z,15.06
2018-06-17T03:58:32.988Z,15.10
2018-06-17T03:59:33.234Z,15.17
2018-06-17T04:00:33.478Z,15.28
2018-06-17T04:01:33.721Z,15.43
2018-06-17T04:02:33.972Z,15.38
2018-06-17T04:03:34.209Z,15.46
2018-06-17T04:04:34.453Z,15.29
2018-06-17T04:05:34.699Z,15.20
2018-06-17T04:06:34.939Z,15.16
2018-06-17T04:07:35.175Z,15.31
2018-06-17T04:08:35.431Z,15.38
2018-06-17T04:09:35.672Z,15.51
2018-06-17T04:10:35.910Z,15.53
2018-06-17T04:11:36.159Z,15.41
2018-06-17T04:12:36.395Z,15.36
2018-06-17T04:13:36.635Z,15.39
2018-06-17T04:14:36.881Z,15.49
2018-06-17T04:15:37.121Z,15.56
2018-06-17T04:16:37.364Z,15.51
2018-06-17T04:17:37.611Z,15.56
2018-06-17T04:18:37.857Z,15.54
2018-06-17T04:19:38.102Z,15.51
2018-06-17T04:20:38.347Z,15.62
2018-06-17T04:21:38.589Z,15.56
2018-06-17T04:22:38.838Z,15.72
2018-06-17T04:23:39.078Z,15.75
2018-06-17T04:24:39.326Z,15.72
2018-06-17T04:25:39.670Z,15.75
2018-06-17T04:26:39.807Z,15.72
2018-06-17T04:27:40.049Z,15.78
2018-06-17T04:28:40.294Z,15.92
2018-06-17T04:29:40.533Z,15.89
2018-06-17T04:30:40.780Z,15.84
2018-06-17T04:31:41.013Z,15.89
2018-06-17T04:32:41.255Z,16.00
2018-06-17T04:33:41.498Z,16.12
2018-06-17T04:34:41.743Z,16.07
2018-06-17T04:35:41.992Z,16.24
2018-06-17T04:36:42.232Z,16.17
2018-06-17T04:37:42.480Z,16.20
2018-06-17T04:38:42.717Z,16.33
2018-06-17T04:39:42.964Z,16.35
2018-06-17T04:40:43.207Z,16.34
2018-06-17T04:41:43.449Z,16.31
2018-06-17T04:42:43.691Z,16.34
2018-06-17T04:43:43.933Z,16.39
2018-06-17T04:44:44.177Z,16.35
2018-06-17T04:45:45.363Z,16.39
2018-06-17T04:46:44.690Z,16.48
2018-06-17T04:47:44.931Z,16.58
2018-06-17T04:48:45.176Z,16.61
2018-06-17T04:49:45.417Z,16.71
2018-06-17T04:50:45.660Z,16.70
2018-06-17T04:51:45.907Z,16.66
2018-06-17T04:52:46.154Z,16.83
2018-06-17T04:53:46.402Z,16.75
2018-06-17T04:54:46.652Z,16.86
2018-06-17T04:55:46.882Z,16.81
2018-06-17T04:56:47.128Z,16.82
2018-06-17T04:57:47.371Z,16.89
2018-06-17T04:58:47.609Z,16.88
2018-06-17T04:59:47.867Z,16.91
2018-06-17T05:00:48.102Z,16.88
2018-06-17T05:01:48.350Z,16.98
2018-06-17T05:02:48.584Z,16.94
2018-06-17T05:03:48.824Z,17.06
2018-06-17T05:04:49.064Z,17.03
2018-06-17T05:05:49.306Z,17.11
2018-06-17T05:06:49.541Z,17.08
2018-06-17T05:07:49.783Z,17.11
2018-06-17T05:08:50.027Z,17.14
2018-06-17T05:09:50.276Z,17.19
2018-06-17T05:10:50.500Z,17.25
2018-06-17T05:11:50.743Z,17.19
2018-06-17T05:12:51.034Z,17.26
2018-06-17T05:13:51.234Z,17.26
2018-06-17T05:14:51.467Z,17.18
2018-06-17T05:15:51.710Z,17.28
2018-06-17T05:16:51.950Z,17.33
2018-06-17T05:17:52.192Z,17.23
2018-06-17T05:18:52.439Z,17.36
2018-06-17T05:19:52.683Z,17.37
2018-06-17T05:20:52.930Z,17.23
2018-06-17T05:21:53.173Z,17.48
2018-06-17T05:22:53.414Z,17.34
2018-06-17T05:23:53.660Z,17.51
2018-06-17T05:24:53.903Z,17.54
2018-06-17T05:25:54.150Z,17.55
2018-06-17T05:26:54.401Z,17.72
2018-06-17T05:27:54.638Z,17.63
2018-06-17T05:28:54.892Z,17.70
2018-06-17T05:29:55.135Z,17.68
2018-06-17T05:30:55.381Z,17.86
2018-06-17T05:31:55.624Z,17.90
2018-06-17T05:32:55.855Z,17.81
2018-06-17T05:33:56.098Z,17.96
2018-06-17T05:34:56.344Z,17.99
2018-06-17T05:35:56.580Z,17.99
2018-06-17T05:36:56.827Z,17.92
2018-06-17T05:37:57.062Z,18.02
2018-06-17T05:38:57.307Z,18.00
2018-06-17T05:39:57.550Z,18.10
2018-06-17T05:40:57.797Z,18.08
2018-06-17T05:41:58.052Z,18.20
2018-06-17T05:42:58.300Z,18.15
2018-06-17T05:43:58.542Z,18.12
2018-06-17T05:44:58.791Z,18.12
2018-06-17T05:45:59.037Z,18.15
2018-06-17T05:46:59.284Z,18.02
2018-06-17T05:47:59.528Z,17.99
2018-06-17T05:48:59.770Z,17.89
2018-06-17T05:50:00.015Z,17.86
2018-06-17T05:51:00.261Z,17.90
2018-06-17T05:52:00.508Z,17.81
2018-06-17T05:53:00.741Z,17.89
2018-06-17T05:54:00.989Z,17.82
2018-06-17T05:55:01.233Z,17.86
2018-06-17T05:56:01.479Z,17.79
2018-06-17T05:57:01.728Z,17.87
2018-06-17T05:58:01.963Z,17.93
2018-06-17T05:59:02.211Z,18.14
2018-06-17T06:00:02.456Z,18.15
2018-06-17T06:01:02.701Z,18.20
2018-06-17T06:02:02.942Z,18.30
2018-06-17T06:03:03.186Z,18.33
2018-06-17T06:04:03.471Z,18.33
2018-06-17T06:05:03.674Z,18.30
2018-06-17T06:06:03.918Z,18.47
2018-06-17T06:07:04.163Z,18.54
2018-06-17T06:08:04.409Z,18.55
2018-06-17T06:09:04.654Z,18.30
2018-06-17T06:10:04.905Z,18.17
2018-06-17T06:11:05.143Z,18.26
2018-06-17T06:12:05.408Z,18.20
2018-06-17T06:13:05.633Z,18.14
2018-06-17T06:14:05.878Z,18.26
2018-06-17T06:15:06.122Z,18.30
2018-06-17T06:16:06.370Z,18.33
2018-06-17T06:17:06.611Z,18.33
2018-06-17T06:18:06.856Z,18.32
2018-06-17T06:19:07.104Z,18.30
2018-06-17T06:20:07.346Z,18.32
2018-06-17T06:21:07.591Z,18.29
2018-06-17T06:22:07.836Z,18.33
2018-06-17T06:23:08.083Z,18.47
2018-06-17T06:24:08.324Z,18.58
2018-06-17T06:25:08.573Z,18.63
2018-06-17T06:26:08.813Z,18.60
2018-06-17T06:27:09.059Z,18.51
2018-06-17T06:28:09.302Z,18.58
2018-06-17T06:29:09.548Z,18.81
2018-06-17T06:30:09.793Z,18.99
2018-06-17T06:31:10.040Z,19.87
2018-06-17T06:32:10.285Z,19.81
2018-06-17T06:33:10.531Z,19.84
2018-06-17T06:34:10.779Z,19.92
2018-06-17T06:35:11.022Z,20.03
2018-06-17T06:36:11.268Z,19.98
2018-06-17T06:37:11.522Z,20.14
2018-06-17T06:38:11.758Z,20.48
2018-06-17T06:39:12.003Z,20.70
2018-06-17T06:40:12.248Z,20.77
2018-06-17T06:41:12.496Z,20.51
2018-06-17T06:42:12.740Z,20.35
2018-06-17T06:43:12.986Z,20.18
2018-06-17T06:44:13.235Z,20.03
2018-06-17T06:45:13.477Z,19.91
2018-06-17T06:46:13.726Z,19.95
2018-06-17T06:47:13.972Z,20.18
2018-06-17T06:48:14.218Z,19.84
2018-06-17T06:49:14.463Z,19.69
2018-06-17T06:50:14.710Z,19.76
2018-06-17T06:51:14.954Z,19.55
2018-06-17T06:52:15.201Z,19.61
2018-06-17T06:53:15.452Z,19.84
2018-06-17T06:54:15.692Z,20.13
2018-06-17T06:55:15.938Z,20.11
2018-06-17T06:56:16.183Z,20.10
2018-06-17T06:57:16.427Z,19.99
2018-06-17T06:58:16.674Z,19.86
2018-06-17T06:59:16.922Z,19.80
2018-06-17T07:00:17.168Z,19.61
2018-06-17T07:01:17.415Z,19.33
2018-06-17T07:02:17.668Z,19.18
2018-06-17T07:03:17.911Z,19.10
2018-06-17T07:04:18.153Z,18.98
2018-06-17T07:05:18.401Z,19.23
2018-06-17T07:06:18.649Z,19.36
2018-06-17T07:07:18.893Z,19.78
2018-06-17T07:08:19.196Z,19.84
2018-06-17T07:09:19.445Z,19.92
2018-06-17T07:10:19.692Z,19.83
2018-06-17T07:11:19.938Z,19.69
2018-06-17T07:12:20.184Z,19.44
2018-06-17T07:13:20.433Z,19.36
2018-06-17T07:14:20.677Z,19.23
2018-06-17T07:15:20.922Z,19.14
2018-06-17T07:16:21.168Z,19.04
2018-06-17T07:17:21.414Z,18.99
2018-06-17T07:18:21.662Z,18.94
2018-06-17T07:19:21.910Z,19.08
2018-06-17T07:20:22.157Z,19.32
2018-06-17T07:21:22.403Z,19.21
2018-06-17T07:22:22.653Z,19.21
2018-06-17T07:23:22.894Z,19.41
2018-06-17T07:24:23.140Z,19.47
2018-06-17T07:25:23.385Z,19.84
2018-06-17T07:26:23.632Z,20.24
2018-06-17T07:27:23.878Z,21.10
2018-06-17T07:28:24.125Z,21.82
2018-06-17T07:29:24.372Z,22.20
2018-06-17T07:30:24.617Z,22.77
2018-06-17T07:31:24.862Z,23.32
2018-06-17T07:32:25.108Z,23.80
2018-06-17T07:33:25.355Z,24.25
2018-06-17T07:34:25.604Z,24.06
2018-06-17T07:35:25.850Z,23.61
2018-06-17T07:36:26.097Z,23.68
2018-06-17T07:37:26.345Z,23.63
2018-06-17T07:38:26.592Z,23.87
2018-06-17T07:39:26.838Z,23.85
2018-06-17T07:40:27.090Z,23.36
2018-06-17T07:41:27.336Z,23.88
2018-06-17T07:42:27.585Z,24.21
2018-06-17T07:43:27.834Z,24.32
2018-06-17T07:44:28.081Z,24.50
2018-06-17T07:45:28.329Z,24.16
2018-06-17T07:46:28.579Z,24.13
2018-06-17T07:47:28.822Z,24.30
2018-06-17T07:48:29.076Z,24.85
2018-06-17T07:49:29.393Z,24.43
2018-06-17T07:50:29.584Z,23.79
2018-06-17T07:51:29.825Z,24.24
2018-06-17T07:52:30.076Z,23.70
2018-06-17T07:53:30.324Z,24.02
2018-06-17T07:54:30.573Z,24.50
2018-06-17T07:55:30.820Z,24.76
2018-06-17T07:56:31.068Z,25.17
2018-06-17T07:57:31.320Z,25.77
2018-06-17T07:58:31.566Z,25.87
2018-06-17T07:59:31.813Z,24.84
2018-06-17T08:00:32.062Z,24.68
2018-06-17T08:01:32.311Z,25.02
2018-06-17T08:02:32.559Z,25.52
2018-06-17T08:03:32.809Z,26.18
2018-06-17T08:04:33.058Z,26.18
2018-06-17T08:05:33.307Z,25.87
2018-06-17T08:06:33.555Z,25.99
2018-06-17T08:07:33.805Z,26.12
2018-06-17T08:08:34.055Z,25.43
2018-06-17T08:09:34.304Z,24.71
2018-06-17T08:10:34.552Z,23.50
2018-06-17T08:11:34.802Z,22.39
2018-06-17T08:12:35.081Z,21.82
2018-06-17T08:13:35.300Z,21.88
2018-06-17T08:14:35.549Z,22.09
2018-06-17T08:15:35.798Z,24.03
2018-06-17T08:16:36.047Z,23.79
2018-06-17T08:17:36.297Z,22.92
2018-06-17T08:18:36.546Z,23.50
2018-06-17T08:19:36.795Z,22.22
2018-06-17T08:20:37.045Z,21.82
2018-06-17T08:21:37.297Z,22.57
2018-06-17T08:22:37.543Z,23.68
2018-06-17T08:23:37.792Z,24.90
2018-06-17T08:24:38.042Z,25.62
2018-06-17T08:25:38.293Z,25.35
2018-06-17T08:26:38.541Z,25.50
2018-06-17T08:27:38.791Z,25.99
2018-06-17T08:28:39.039Z,26.40
2018-06-17T08:29:39.293Z,26.28
2018-06-17T08:30:39.540Z,25.61
2018-06-17T08:31:39.791Z,25.60
2018-06-17T08:32:40.042Z,26.25
2018-06-17T08:33:40.293Z,26.01
2018-06-17T08:34:40.541Z,26.26
2018-06-17T08:35:40.791Z,25.76
2018-06-17T08:36:41.043Z,25.28
2018-06-17T08:37:41.294Z,25.69
2018-06-17T08:38:41.542Z,26.09
2018-06-17T08:39:41.796Z,25.75
2018-06-17T08:40:42.053Z,26.07
2018-06-17T08:41:42.297Z,26.39
2018-06-17T08:42:42.548Z,24.69
2018-06-17T08:43:42.799Z,25.76
2018-06-17T08:44:43.047Z,25.39
2018-06-17T08:45:43.296Z,26.13
2018-06-17T08:46:43.561Z,25.60
2018-06-17T08:47:43.803Z,24.69
2018-06-17T08:48:44.054Z,25.06
2018-06-17T08:49:44.306Z,24.06
2018-06-17T08:50:44.555Z,22.58
2018-06-17T08:51:44.806Z,21.98
2018-06-17T08:52:45.057Z,21.54
2018-06-17T08:53:45.307Z,21.25
2018-06-17T08:54:45.561Z,20.98
2018-06-17T08:55:45.812Z,20.70
2018-06-17T08:56:46.062Z,20.62
2018-06-17T08:57:46.312Z,20.70
2018-06-17T08:58:46.565Z,20.76
2018-06-17T08:59:46.817Z,21.29
2018-06-17T09:00:47.064Z,21.77
2018-06-17T09:01:47.316Z,21.88
2018-06-17T09:02:47.564Z,22.12
2018-06-17T09:03:47.815Z,21.86
2018-06-17T09:04:48.065Z,21.64
2018-06-17T09:05:48.314Z,21.91
2018-06-17T09:06:48.563Z,21.98
2018-06-17T09:07:48.810Z,21.98
2018-06-17T09:08:49.061Z,22.40
2018-06-17T09:09:49.311Z,22.97
2018-06-17T09:10:49.560Z,22.65
2018-06-17T09:11:49.813Z,22.33
2018-06-17T09:12:50.055Z,22.85
2018-06-17T09:13:50.303Z,22.10
2018-06-17T09:14:50.547Z,21.99
2018-06-17T09:15:50.800Z,21.94
2018-06-17T09:16:51.046Z,21.92
2018-06-17T09:17:51.293Z,21.98
2018-06-17T09:18:51.542Z,21.80
2018-06-17T09:19:51.789Z,21.88
2018-06-17T09:20:52.069Z,21.50
2018-06-17T09:21:52.288Z,21.31
2018-06-17T09:22:52.533Z,21.37
2018-06-17T09:23:52.781Z,21.44
2018-06-17T09:24:53.030Z,22.90
2018-06-17T09:25:53.280Z,23.79
2018-06-17T09:26:53.527Z,23.63
2018-06-17T09:27:53.775Z,23.69
2018-06-17T09:28:54.023Z,23.53
2018-06-17T09:29:54.271Z,23.61
2018-06-17T09:30:54.520Z,23.73
2018-06-17T09:31:54.786Z,23.65
2018-06-17T09:32:55.019Z,22.73
2018-06-17T09:33:55.267Z,22.24
2018-06-17T09:34:55.515Z,21.94
2018-06-17T09:35:55.764Z,21.64
2018-06-17T09:36:56.013Z,21.77
2018-06-17T09:37:56.294Z,21.50
2018-06-17T09:38:56.512Z,21.28
2018-06-17T09:39:56.759Z,21.24
2018-06-17T09:40:57.006Z,22.20
2018-06-17T09:41:57.256Z,23.55
2018-06-17T09:42:57.503Z,24.68
2018-06-17T09:43:57.752Z,25.36
2018-06-17T09:44:58.003Z,25.72
2018-06-17T09:45:58.247Z,26.55
2018-06-17T09:46:58.496Z,25.92
2018-06-17T09:47:58.744Z,24.93
2018-06-17T09:48:58.996Z,24.58
2018-06-17T09:49:59.246Z,24.22
2018-06-17T09:50:59.494Z,23.79
2018-06-17T09:51:59.801Z,23.42
2018-06-17T09:52:59.994Z,24.13
2018-06-17T09:54:00.247Z,23.78
2018-06-17T09:55:00.492Z,22.83
2018-06-17T09:56:00.743Z,22.40
2018-06-17T09:57:00.995Z,22.49
2018-06-17T09:58:01.245Z,22.02
2018-06-17T09:59:01.493Z,22.52
2018-06-17T10:00:01.741Z,22.55
2018-06-17T10:01:01.991Z,21.92
2018-06-17T10:02:02.241Z,21.75
2018-06-17T10:03:02.490Z,21.74
2018-06-17T10:04:02.739Z,21.40
2018-06-17T10:05:02.988Z,21.14
2018-06-17T10:06:03.237Z,21.19
2018-06-17T10:07:03.487Z,21.24
2018-06-17T10:08:03.734Z,21.19
2018-06-17T10:09:04.016Z,20.99
2018-06-17T10:10:04.231Z,21.12
2018-06-17T10:11:04.479Z,21.16
2018-06-17T10:12:04.727Z,21.28
2018-06-17T10:13:04.975Z,21.22
2018-06-17T10:14:05.223Z,21.31
2018-06-17T10:15:05.471Z,21.47
2018-06-17T10:16:05.718Z,21.68
2018-06-17T10:17:05.965Z,21.84
2018-06-17T10:18:06.213Z,21.84
2018-06-17T10:19:06.460Z,21.92
2018-06-17T10:20:06.710Z,22.09
2018-06-17T10:21:07.010Z,22.43
2018-06-17T10:22:07.211Z,23.84
2018-06-17T10:23:07.456Z,24.96
2018-06-17T10:24:07.704Z,25.30
2018-06-17T10:25:07.952Z,24.62
2018-06-17T10:26:08.201Z,25.47
2018-06-17T10:27:08.451Z,26.94
2018-06-17T10:28:08.699Z,27.32
2018-06-17T10:29:08.947Z,26.36
2018-06-17T10:30:09.198Z,26.40
2018-06-17T10:31:09.449Z,25.77
2018-06-17T10:32:09.696Z,25.23
2018-06-17T10:33:09.947Z,24.77
2018-06-17T10:34:10.196Z,23.79
2018-06-17T10:35:10.448Z,23.33
2018-06-17T10:36:10.700Z,23.02
2018-06-17T10:37:10.949Z,22.88
2018-06-17T10:38:11.288Z,22.51
2018-06-17T10:39:11.450Z,21.98
2018-06-17T10:40:11.700Z,21.71
2018-06-17T10:41:11.949Z,21.96
2018-06-17T10:42:12.201Z,21.84
2018-06-17T10:43:12.449Z,21.53
2018-06-17T10:44:12.700Z,21.32
2018-06-17T10:45:12.947Z,21.31
2018-06-17T10:46:13.197Z,20.97
2018-06-17T10:47:13.447Z,20.95
2018-06-17T10:48:13.695Z,20.89
2018-06-17T10:49:13.946Z,20.84
2018-06-17T10:50:14.195Z,20.87
2018-06-17T10:51:14.448Z,20.84
2018-06-17T10:52:14.692Z,20.92
2018-06-17T10:53:14.941Z,20.84
2018-06-17T10:54:15.190Z,20.67
2018-06-17T10:55:15.438Z,20.84
2018-06-17T10:56:15.732Z,20.87
2018-06-17T10:57:15.934Z,20.89
2018-06-17T10:58:16.185Z,20.84
2018-06-17T10:59:16.430Z,21.04
2018-06-17T11:00:16.679Z,21.10
2018-06-17T11:01:16.947Z,21.21
2018-06-17T11:02:17.175Z,21.12
2018-06-17T11:03:17.424Z,21.19
2018-06-17T11:04:17.672Z,21.40
2018-06-17T11:05:17.992Z,21.47
2018-06-17T11:06:18.170Z,21.24
2018-06-17T11:07:18.418Z,21.37
2018-06-17T11:08:18.666Z,21.40
2018-06-17T11:09:18.911Z,21.40
2018-06-17T11:10:19.159Z,21.47
2018-06-17T11:11:19.408Z,21.46
2018-06-17T11:12:19.654Z,21.16
2018-06-17T11:13:19.967Z,20.99
2018-06-17T11:14:20.149Z,20.89
2018-06-17T11:15:20.397Z,20.85
2018-06-17T11:16:20.644Z,20.84
2018-06-17T11:17:20.893Z,20.58
2018-06-17T11:18:21.139Z,20.64
2018-06-17T11:19:21.390Z,20.74
2018-06-17T11:20:21.634Z,20.76
2018-06-17T11:21:21.882Z,21.03
2018-06-17T11:22:22.132Z,21.14
2018-06-17T11:23:22.378Z,21.28
2018-06-17T11:24:22.624Z,21.54
2018-06-17T11:25:22.871Z,21.79
2018-06-17T11:26:23.118Z,22.02
2018-06-17T11:27:23.369Z,22.30
2018-06-17T11:28:23.616Z,22.03
2018-06-17T11:29:23.859Z,22.09
2018-06-17T11:30:24.107Z,22.12
2018-06-17T11:31:24.355Z,22.28
2018-06-17T11:32:24.604Z,22.47
2018-06-17T11:33:24.853Z,22.90
2018-06-17T11:34:25.101Z,23.15
2018-06-17T11:35:25.348Z,23.28
2018-06-17T11:36:25.596Z,23.78
2018-06-17T11:37:25.842Z,23.73
2018-06-17T11:38:26.092Z,24.15
2018-06-17T11:39:26.343Z,23.94
2018-06-17T11:40:26.591Z,24.78
2018-06-17T11:41:26.841Z,25.77
2018-06-17T11:42:27.090Z,26.43
2018-06-17T11:43:27.337Z,26.51
2018-06-17T11:44:27.588Z,26.58
2018-06-17T11:45:27.842Z,24.28
2018-06-17T11:46:28.090Z,23.73
2018-06-17T11:47:28.341Z,23.04
2018-06-17T11:48:28.590Z,22.92
2018-06-17T11:49:28.842Z,24.28
2018-06-17T11:50:29.089Z,24.87
2018-06-17T11:51:29.374Z,25.08
2018-06-17T11:52:29.596Z,24.43
2018-06-17T11:53:29.839Z,24.21
2018-06-17T11:54:30.090Z,24.43
2018-06-17T11:55:30.342Z,25.06
2018-06-17T11:56:30.592Z,25.85
2018-06-17T11:57:30.842Z,26.40
2018-06-17T11:58:31.099Z,26.47
2018-06-17T11:59:31.342Z,26.01
2018-06-17T12:00:31.594Z,26.05
2018-06-17T12:01:31.847Z,25.90
2018-06-17T12:02:32.100Z,25.51
2018-06-17T12:03:32.351Z,25.33
2018-06-17T12:04:32.600Z,25.90
2018-06-17T12:05:32.860Z,26.01
2018-06-17T12:06:33.105Z,25.27
2018-06-17T12:07:33.353Z,26.12
2018-06-17T12:08:33.607Z,25.75
2018-06-17T12:09:33.890Z,24.42
2018-06-17T12:10:34.113Z,23.47
2018-06-17T12:11:34.368Z,23.73
2018-06-17T12:12:34.620Z,25.05
2018-06-17T12:13:34.868Z,24.77
2018-06-17T12:14:35.120Z,24.71
2018-06-17T12:15:35.373Z,24.84
2018-06-17T12:16:35.630Z,24.88
2018-06-17T12:17:35.878Z,25.38
2018-06-17T12:18:36.131Z,25.57
2018-06-17T12:19:36.382Z,25.99
2018-06-17T12:20:36.633Z,26.05
2018-06-17T12:21:36.884Z,25.45
2018-06-17T12:22:37.136Z,25.02
2018-06-17T12:23:37.386Z,24.15
2018-06-17T12:24:37.638Z,23.36
2018-06-17T12:25:37.890Z,23.48
2018-06-17T12:26:38.143Z,23.57
2018-06-17T12:27:38.394Z,23.15
2018-06-17T12:28:38.645Z,22.90
2018-06-17T12:29:38.897Z,22.57
2018-06-17T12:30:39.148Z,22.42
2018-06-17T12:31:39.400Z,22.02
2018-06-17T12:32:39.651Z,22.18
2018-06-17T12:33:39.902Z,22.06
2018-06-17T12:34:40.152Z,22.30
2018-06-17T12:35:40.401Z,22.54
2018-06-17T12:36:40.653Z,22.67
2018-06-17T12:37:40.899Z,22.54
2018-06-17T12:38:41.151Z,22.18
2018-06-17T12:39:41.400Z,22.24
2018-06-17T12:40:41.673Z,22.46
2018-06-17T12:41:41.901Z,22.83
2018-06-17T12:42:42.152Z,23.84
2018-06-17T12:43:42.402Z,25.32
2018-06-17T12:44:42.651Z,26.62
2018-06-17T12:45:42.901Z,27.25
2018-06-17T12:46:43.151Z,27.99
2018-06-17T12:47:43.401Z,28.04
2018-06-17T12:48:43.650Z,28.56
2018-06-17T12:49:43.899Z,28.62
2018-06-17T12:50:44.150Z,27.99
2018-06-17T12:51:44.401Z,27.66
2018-06-17T12:52:44.654Z,28.31
2018-06-17T12:53:44.901Z,28.30
2018-06-17T12:54:45.152Z,26.47
2018-06-17T12:55:45.406Z,25.39